Portada
METAR-TAF:

METAR-TAF

Aeroports :

Alexandria-Borg El Arab, Egipte

latitud: 31-31N, longitud: 030-10E, altitud: 54 m

Observació

L'informe es va fer fa 42 minuts, a les 17:00 UTC
Vent 6 kt del Nord/Nord-Oest
Temperatura 18°C
Humitat 68%
Pressió 1020 hPa
Visibilitat 10 km o més
Núvols disperses a una alçada de 2000 ft

METAR: HEBA 041700Z 33006KT 9999 SCT020 18/12 Q1020 NOSIG

Hora: 19:42 (17:42 UTC)

Pronòstic

L'informe es va fer fa 42 minuts, a les 17:00 UTC
Pronòstic vàlid del 04 a les 18 UTC al 05 a les 24 UTC
Vent 10 kt del Nord/Nord-Oest
Visibilitat 10 km o més
Núvols disperses a una alçada de 2000 ft

TAF: HEBA 041700Z 0418/0524 34010KT 9999 SCT020

Observacions i pronòstics meteorològics de més de 4000 aeroports (METAR i TAF).

Les estacions disponibles són els punts grocs i vermells al mapa.

Posi el ratolí al punt desitjat per veure el nom de l'estació.

Feu clic per veure les observacions i els pronòstics meteorològics.

Per canviar el mapa: feu clic els botons verds amb una creu de color negre per apropar; al botó verd amb un guió per allunyar la imatge; o en les fletxes verdes per a mapes adjacents.


METAR-TAF: